sensor_id;sensor_type;location;lat;lon;timestamp;pressure;altitude;pressure_sealevel;temperature;humidity
53514;BME280;39768;54.148;12.174;2023-03-21T00:03:53;101456.16;;;12.77;100.00
53514;BME280;39768;54.148;12.174;2023-03-21T00:07:55;101459.53;;;12.91;100.00
53514;BME280;39768;54.148;12.174;2023-03-21T00:11:56;101454.66;;;12.52;100.00
53514;BME280;39768;54.148;12.174;2023-03-21T00:16:16;101451.69;;;12.81;100.00
53514;BME280;39768;54.148;12.174;2023-03-21T00:20:22;101450.00;;;12.75;100.00
53514;BME280;39768;54.148;12.174;2023-03-21T00:24:23;101443.94;;;12.61;100.00
53514;BME280;39768;54.148;12.174;2023-03-21T00:28:26;101451.06;;;12.59;100.00
53514;BME280;39768;54.148;12.174;2023-03-21T00:32:28;101443.88;;;12.64;100.00
53514;BME280;39768;54.148;12.174;2023-03-21T00:36:29;101439.66;;;12.45;100.00
53514;BME280;39768;54.148;12.174;2023-03-21T00:40:32;101441.28;;;12.59;100.00
53514;BME280;39768;54.148;12.174;2023-03-21T00:44:43;101440.25;;;12.74;100.00
53514;BME280;39768;54.148;12.174;2023-03-21T00:48:45;101440.06;;;12.89;100.00
53514;BME280;39768;54.148;12.174;2023-03-21T00:52:46;101436.50;;;12.90;100.00
53514;BME280;39768;54.148;12.174;2023-03-21T00:56:48;101434.66;;;12.92;100.00
53514;BME280;39768;54.148;12.174;2023-03-21T01:00:49;101433.13;;;12.76;100.00
53514;BME280;39768;54.148;12.174;2023-03-21T01:04:52;101426.06;;;12.72;100.00
53514;BME280;39768;54.148;12.174;2023-03-21T01:08:54;101427.91;;;12.64;100.00
53514;BME280;39768;54.148;12.174;2023-03-21T01:12:55;101420.88;;;12.60;100.00
53514;BME280;39768;54.148;12.174;2023-03-21T01:16:57;101420.16;;;12.44;100.00
53514;BME280;39768;54.148;12.174;2023-03-21T01:20:59;101420.75;;;12.69;100.00
53514;BME280;39768;54.148;12.174;2023-03-21T01:25:01;101418.81;;;11.99;100.00
53514;BME280;39768;54.148;12.174;2023-03-21T01:29:22;101421.31;;;12.95;100.00
53514;BME280;39768;54.148;12.174;2023-03-21T01:33:23;101417.19;;;12.70;100.00
53514;BME280;39768;54.148;12.174;2023-03-21T01:37:25;101413.13;;;13.11;100.00
53514;BME280;39768;54.148;12.174;2023-03-21T01:41:29;101417.38;;;12.52;100.00
53514;BME280;39768;54.148;12.174;2023-03-21T01:46:20;101421.84;;;12.50;100.00
53514;BME280;39768;54.148;12.174;2023-03-21T01:50:31;101418.09;;;12.67;100.00
53514;BME280;39768;54.148;12.174;2023-03-21T01:55:00;101410.66;;;12.95;100.00
53514;BME280;39768;54.148;12.174;2023-03-21T01:59:13;101405.53;;;12.77;100.00
53514;BME280;39768;54.148;12.174;2023-03-21T02:03:44;101406.91;;;13.08;100.00
53514;BME280;39768;54.148;12.174;2023-03-21T02:08:22;101404.47;;;12.92;100.00
53514;BME280;39768;54.148;12.174;2023-03-21T02:12:42;101409.19;;;12.71;100.00
53514;BME280;39768;54.148;12.174;2023-03-21T02:16:53;101400.84;;;12.97;100.00
53514;BME280;39768;54.148;12.174;2023-03-21T02:21:15;101399.38;;;12.74;100.00
53514;BME280;39768;54.148;12.174;2023-03-21T02:25:50;101396.81;;;12.64;100.00
53514;BME280;39768;54.148;12.174;2023-03-21T02:38:42;101380.28;;;13.07;100.00
53514;BME280;39768;54.148;12.174;2023-03-21T02:47:26;101385.69;;;13.02;100.00
53514;BME280;39768;54.148;12.174;2023-03-21T02:51:31;101382.78;;;13.21;100.00
53514;BME280;39768;54.148;12.174;2023-03-21T02:55:35;101392.88;;;12.94;100.00
53514;BME280;39768;54.148;12.174;2023-03-21T02:59:39;101386.13;;;12.69;100.00
53514;BME280;39768;54.148;12.174;2023-03-21T03:03:58;101387.59;;;12.91;100.00
53514;BME280;39768;54.148;12.174;2023-03-21T03:16:46;101390.03;;;13.10;100.00
53514;BME280;39768;54.148;12.174;2023-03-21T03:25:19;101379.78;;;13.44;100.00
53514;BME280;39768;54.148;12.174;2023-03-21T03:29:43;101380.44;;;13.59;100.00
53514;BME280;39768;54.148;12.174;2023-03-21T03:33:53;101383.97;;;13.61;100.00
53514;BME280;39768;54.148;12.174;2023-03-21T03:37:59;101377.81;;;13.56;100.00
53514;BME280;39768;54.148;12.174;2023-03-21T03:42:16;101378.88;;;12.80;100.00
53514;BME280;39768;54.148;12.174;2023-03-21T03:55:24;101381.50;;;12.83;100.00
53514;BME280;39768;54.148;12.174;2023-03-21T03:59:39;101384.06;;;12.91;100.00
53514;BME280;39768;54.148;12.174;2023-03-21T04:04:00;101386.59;;;13.01;100.00
53514;BME280;39768;54.148;12.174;2023-03-21T04:08:15;101382.13;;;13.05;100.00
53514;BME280;39768;54.148;12.174;2023-03-21T04:12:23;101376.72;;;13.06;100.00
53514;BME280;39768;54.148;12.174;2023-03-21T04:16:52;101367.75;;;13.17;100.00
53514;BME280;39768;54.148;12.174;2023-03-21T04:20:54;101375.66;;;13.21;100.00
53514;BME280;39768;54.148;12.174;2023-03-21T04:24:57;101369.44;;;13.21;100.00
53514;BME280;39768;54.148;12.174;2023-03-21T04:29:02;101370.47;;;13.09;100.00
53514;BME280;39768;54.148;12.174;2023-03-21T04:33:30;101374.34;;;12.88;100.00
53514;BME280;39768;54.148;12.174;2023-03-21T04:37:31;101368.72;;;12.39;100.00
53514;BME280;39768;54.148;12.174;2023-03-21T04:47:29;101368.31;;;12.73;100.00
53514;BME280;39768;54.148;12.174;2023-03-21T04:51:55;101373.66;;;12.73;100.00
53514;BME280;39768;54.148;12.174;2023-03-21T04:55:56;101374.41;;;12.81;100.00
53514;BME280;39768;54.148;12.174;2023-03-21T04:59:58;101368.16;;;12.85;100.00
53514;BME280;39768;54.148;12.174;2023-03-21T05:04:30;101369.16;;;12.76;100.00
53514;BME280;39768;54.148;12.174;2023-03-21T05:09:56;101375.25;;;12.86;100.00
53514;BME280;39768;54.148;12.174;2023-03-21T05:14:38;101379.69;;;12.07;100.00
53514;BME280;39768;54.148;12.174;2023-03-21T05:18:40;101373.09;;;12.46;100.00
53514;BME280;39768;54.148;12.174;2023-03-21T05:22:48;101363.88;;;12.73;100.00
53514;BME280;39768;54.148;12.174;2023-03-21T05:26:52;101373.91;;;12.50;100.00
53514;BME280;39768;54.148;12.174;2023-03-21T05:30:58;101378.19;;;12.63;100.00
53514;BME280;39768;54.148;12.174;2023-03-21T05:35:01;101374.56;;;12.71;100.00
53514;BME280;39768;54.148;12.174;2023-03-21T05:39:03;101380.84;;;12.64;100.00
53514;BME280;39768;54.148;12.174;2023-03-21T05:43:09;101371.91;;;12.68;100.00
53514;BME280;39768;54.148;12.174;2023-03-21T05:47:12;101374.50;;;12.76;100.00
53514;BME280;39768;54.148;12.174;2023-03-21T05:51:20;101365.66;;;12.71;100.00
53514;BME280;39768;54.148;12.174;2023-03-21T05:55:21;101371.88;;;12.71;100.00
53514;BME280;39768;54.148;12.174;2023-03-21T05:59:26;101371.31;;;12.45;100.00
53514;BME280;39768;54.148;12.174;2023-03-21T06:03:30;101369.03;;;12.85;100.00
53514;BME280;39768;54.148;12.174;2023-03-21T06:07:38;101363.69;;;12.10;100.00
53514;BME280;39768;54.148;12.174;2023-03-21T06:11:45;101368.53;;;12.56;100.00
53514;BME280;39768;54.148;12.174;2023-03-21T06:15:50;101364.28;;;12.40;100.00
53514;BME280;39768;54.148;12.174;2023-03-21T06:19:55;101369.63;;;12.35;100.00
53514;BME280;39768;54.148;12.174;2023-03-21T06:24:02;101368.00;;;12.23;100.00
53514;BME280;39768;54.148;12.174;2023-03-21T06:28:04;101365.50;;;12.05;100.00
53514;BME280;39768;54.148;12.174;2023-03-21T06:32:12;101361.59;;;12.41;100.00
53514;BME280;39768;54.148;12.174;2023-03-21T06:36:15;101363.56;;;12.22;100.00
53514;BME280;39768;54.148;12.174;2023-03-21T06:40:17;101368.00;;;12.23;100.00
53514;BME280;39768;54.148;12.174;2023-03-21T06:44:19;101371.66;;;12.13;100.00
53514;BME280;39768;54.148;12.174;2023-03-21T06:48:30;101372.31;;;12.32;100.00
53514;BME280;39768;54.148;12.174;2023-03-21T06:52:33;101380.56;;;12.11;100.00
53514;BME280;39768;54.148;12.174;2023-03-21T06:56:35;101377.88;;;12.11;100.00
53514;BME280;39768;54.148;12.174;2023-03-21T07:00:38;101373.09;;;12.46;100.00
53514;BME280;39768;54.148;12.174;2023-03-21T07:04:40;101374.50;;;12.76;100.00
53514;BME280;39768;54.148;12.174;2023-03-21T07:08:47;101373.06;;;13.18;100.00
53514;BME280;39768;54.148;12.174;2023-03-21T07:12:50;101374.19;;;12.97;100.00
53514;BME280;39768;54.148;12.174;2023-03-21T07:16:57;101373.13;;;12.42;100.00
53514;BME280;39768;54.148;12.174;2023-03-21T07:20:59;101369.31;;;13.31;100.00
53514;BME280;39768;54.148;12.174;2023-03-21T07:25:01;101371.31;;;13.16;100.00
53514;BME280;39768;54.148;12.174;2023-03-21T07:29:11;101375.34;;;12.77;100.00
53514;BME280;39768;54.148;12.174;2023-03-21T07:33:13;101369.25;;;12.68;100.00
53514;BME280;39768;54.148;12.174;2023-03-21T07:37:15;101379.00;;;13.37;100.00
53514;BME280;39768;54.148;12.174;2023-03-21T07:41:17;101378.50;;;13.06;100.00
53514;BME280;39768;54.148;12.174;2023-03-21T07:45:18;101373.41;;;13.54;100.00
53514;BME280;39768;54.148;12.174;2023-03-21T07:49:22;101375.03;;;13.02;100.00
53514;BME280;39768;54.148;12.174;2023-03-21T07:53:25;101378.66;;;12.95;100.00
53514;BME280;39768;54.148;12.174;2023-03-21T07:57:28;101376.69;;;13.10;100.00
53514;BME280;39768;54.148;12.174;2023-03-21T08:01:30;101375.97;;;12.98;100.00
53514;BME280;39768;54.148;12.174;2023-03-21T08:05:36;101376.19;;;12.80;100.00
53514;BME280;39768;54.148;12.174;2023-03-21T08:09:39;101370.81;;;12.86;100.00
53514;BME280;39768;54.148;12.174;2023-03-21T08:13:40;101366.72;;;13.27;100.00
53514;BME280;39768;54.148;12.174;2023-03-21T08:17:42;101371.66;;;14.05;100.00
53514;BME280;39768;54.148;12.174;2023-03-21T08:21:49;101371.09;;;13.32;100.00
53514;BME280;39768;54.148;12.174;2023-03-21T08:25:53;101375.34;;;12.77;100.00
53514;BME280;39768;54.148;12.174;2023-03-21T08:29:55;101384.41;;;13.32;100.00
53514;BME280;39768;54.148;12.174;2023-03-21T08:34:01;101375.34;;;13.44;100.00
53514;BME280;39768;54.148;12.174;2023-03-21T08:38:03;101377.72;;;12.99;100.00
53514;BME280;39768;54.148;12.174;2023-03-21T08:42:05;101370.72;;;12.92;100.00
53514;BME280;39768;54.148;12.174;2023-03-21T08:46:06;101368.19;;;13.98;100.00
53514;BME280;39768;54.148;12.174;2023-03-21T08:50:10;101374.47;;;13.96;100.00
53514;BME280;39768;54.148;12.174;2023-03-21T08:54:20;101367.28;;;13.49;100.00
53514;BME280;39768;54.148;12.174;2023-03-21T08:58:22;101376.03;;;14.09;100.00
53514;BME280;39768;54.148;12.174;2023-03-21T09:02:23;101361.97;;;13.98;100.00
53514;BME280;39768;54.148;12.174;2023-03-21T09:06:25;101366.25;;;14.08;100.00
53514;BME280;39768;54.148;12.174;2023-03-21T09:10:29;101369.03;;;14.02;100.00
53514;BME280;39768;54.148;12.174;2023-03-21T09:14:30;101359.66;;;13.80;100.00
53514;BME280;39768;54.148;12.174;2023-03-21T09:18:34;101359.19;;;14.05;100.00
53514;BME280;39768;54.148;12.174;2023-03-21T09:22:48;101359.34;;;14.45;100.00
53514;BME280;39768;54.148;12.174;2023-03-21T09:26:50;101361.84;;;14.07;100.00
53514;BME280;39768;54.148;12.174;2023-03-21T09:30:52;101349.25;;;14.12;100.00
53514;BME280;39768;54.148;12.174;2023-03-21T09:34:55;101349.91;;;14.25;100.00
53514;BME280;39768;54.148;12.174;2023-03-21T09:38:57;101359.56;;;13.84;100.00
53514;BME280;39768;54.148;12.174;2023-03-21T09:43:37;101343.25;;;13.99;100.00
53514;BME280;39768;54.148;12.174;2023-03-21T09:47:44;101353.63;;;14.16;100.00
53514;BME280;39768;54.148;12.174;2023-03-21T09:51:51;101336.38;;;14.35;100.00
53514;BME280;39768;54.148;12.174;2023-03-21T09:55:54;101335.28;;;14.45;100.00
53514;BME280;39768;54.148;12.174;2023-03-21T09:59:58;101330.94;;;15.22;100.00
53514;BME280;39768;54.148;12.174;2023-03-21T10:04:14;101330.94;;;15.22;100.00
53514;BME280;39768;54.148;12.174;2023-03-21T10:08:21;101332.41;;;14.98;100.00
53514;BME280;39768;54.148;12.174;2023-03-21T10:12:27;101328.94;;;14.53;100.00
53514;BME280;39768;54.148;12.174;2023-03-21T10:16:42;101327.53;;;14.75;100.00
53514;BME280;39768;54.148;12.174;2023-03-21T10:20:45;101328.22;;;15.25;100.00
53514;BME280;39768;54.148;12.174;2023-03-21T10:24:47;101328.16;;;14.46;100.00
53514;BME280;39768;54.148;12.174;2023-03-21T10:28:49;101322.00;;;15.23;100.00
53514;BME280;39768;54.148;12.174;2023-03-21T10:32:58;101316.28;;;14.61;100.00
53514;BME280;39768;54.148;12.174;2023-03-21T10:37:03;101330.72;;;15.31;99.46
53514;BME280;39768;54.148;12.174;2023-03-21T10:41:06;101317.28;;;14.55;100.00
53514;BME280;39768;54.148;12.174;2023-03-21T10:45:17;101313.47;;;15.07;99.97
53514;BME280;39768;54.148;12.174;2023-03-21T10:49:20;101311.34;;;14.82;100.00
53514;BME280;39768;54.148;12.174;2023-03-21T10:53:31;101315.19;;;14.69;100.00
53514;BME280;39768;54.148;12.174;2023-03-21T10:57:36;101312.94;;;14.91;100.00
53514;BME280;39768;54.148;12.174;2023-03-21T11:01:42;101296.41;;;14.72;100.00
53514;BME280;39768;54.148;12.174;2023-03-21T11:05:44;101303.13;;;14.52;100.00
53514;BME280;39768;54.148;12.174;2023-03-21T11:09:57;101296.13;;;15.25;100.00
53514;BME280;39768;54.148;12.174;2023-03-21T11:14:01;101290.09;;;14.76;100.00
53514;BME280;39768;54.148;12.174;2023-03-21T11:18:19;101292.75;;;15.15;100.00
53514;BME280;39768;54.148;12.174;2023-03-21T11:22:23;101288.03;;;14.89;100.00
53514;BME280;39768;54.148;12.174;2023-03-21T11:26:29;101288.00;;;14.91;100.00
53514;BME280;39768;54.148;12.174;2023-03-21T11:30:33;101283.34;;;15.36;100.00
53514;BME280;39768;54.148;12.174;2023-03-21T11:34:45;101276.16;;;15.01;100.00
53514;BME280;39768;54.148;12.174;2023-03-21T11:38:53;101276.31;;;15.32;100.00
53514;BME280;39768;54.148;12.174;2023-03-21T11:42:59;101274.59;;;14.92;100.00
53514;BME280;39768;54.148;12.174;2023-03-21T11:47:01;101267.06;;;15.45;99.60
53514;BME280;39768;54.148;12.174;2023-03-21T11:51:11;101263.41;;;15.13;100.00
53514;BME280;39768;54.148;12.174;2023-03-21T12:03:51;101249.31;;;14.68;100.00
53514;BME280;39768;54.148;12.174;2023-03-21T12:21:47;101229.94;;;14.97;100.00
53514;BME280;39768;54.148;12.174;2023-03-21T12:30:17;101217.91;;;15.83;98.64
53514;BME280;39768;54.148;12.174;2023-03-21T12:38:42;101215.63;;;15.69;98.55
53514;BME280;39768;54.148;12.174;2023-03-21T12:42:56;101208.72;;;15.59;98.19
53514;BME280;39768;54.148;12.174;2023-03-21T12:47:06;101203.16;;;15.33;98.41
53514;BME280;39768;54.148;12.174;2023-03-21T12:51:15;101194.53;;;15.57;97.27
53514;BME280;39768;54.148;12.174;2023-03-21T12:55:29;101198.72;;;15.67;99.57
53514;BME280;39768;54.148;12.174;2023-03-21T12:59:38;101194.41;;;15.62;100.00
53514;BME280;39768;54.148;12.174;2023-03-21T13:03:47;101201.84;;;14.79;100.00
53514;BME280;39768;54.148;12.174;2023-03-21T13:07:55;101184.31;;;15.37;100.00
53514;BME280;39768;54.148;12.174;2023-03-21T13:12:04;101187.19;;;15.96;100.00
53514;BME280;39768;54.148;12.174;2023-03-21T13:16:19;101180.66;;;15.07;100.00
53514;BME280;39768;54.148;12.174;2023-03-21T13:24:49;101178.09;;;15.37;100.00
53514;BME280;39768;54.148;12.174;2023-03-21T13:28:51;101172.78;;;15.35;100.00
53514;BME280;39768;54.148;12.174;2023-03-21T13:33:13;101157.91;;;14.90;100.00
53514;BME280;39768;54.148;12.174;2023-03-21T13:37:17;101152.78;;;15.16;100.00
53514;BME280;39768;54.148;12.174;2023-03-21T13:41:45;101140.28;;;15.16;100.00
53514;BME280;39768;54.148;12.174;2023-03-21T13:45:52;101143.13;;;15.10;100.00
53514;BME280;39768;54.148;12.174;2023-03-21T13:54:16;101127.91;;;15.45;100.00
53514;BME280;39768;54.148;12.174;2023-03-21T14:02:51;101126.41;;;15.02;100.00
53514;BME280;39768;54.148;12.174;2023-03-21T14:07:09;101123.22;;;15.56;100.00
53514;BME280;39768;54.148;12.174;2023-03-21T14:11:21;101116.38;;;15.12;100.00
53514;BME280;39768;54.148;12.174;2023-03-21T14:15:37;101110.50;;;15.94;100.00
53514;BME280;39768;54.148;12.174;2023-03-21T14:19:55;101113.16;;;15.64;100.00
53514;BME280;39768;54.148;12.174;2023-03-21T14:24:05;101106.78;;;15.36;100.00
53514;BME280;39768;54.148;12.174;2023-03-21T14:28:20;101100.72;;;15.29;100.00
53514;BME280;39768;54.148;12.174;2023-03-21T14:32:27;101100.22;;;15.47;100.00
53514;BME280;39768;54.148;12.174;2023-03-21T14:36:38;101087.13;;;15.69;100.00
53514;BME280;39768;54.148;12.174;2023-03-21T14:40:50;101078.19;;;15.05;100.00
53514;BME280;39768;54.148;12.174;2023-03-21T14:44:53;101073.88;;;15.65;100.00
53514;BME280;39768;54.148;12.174;2023-03-21T14:49:19;101074.56;;;15.73;100.00
53514;BME280;39768;54.148;12.174;2023-03-21T14:53:40;101074.41;;;15.45;100.00
53514;BME280;39768;54.148;12.174;2023-03-21T14:57:42;101060.28;;;15.09;100.00
53514;BME280;39768;54.148;12.174;2023-03-21T15:01:45;101057.78;;;15.34;100.00
53514;BME280;39768;54.148;12.174;2023-03-21T15:05:47;101051.88;;;14.90;100.00
53514;BME280;39768;54.148;12.174;2023-03-21T15:09:54;101050.16;;;14.88;100.00
53514;BME280;39768;54.148;12.174;2023-03-21T15:13:58;101050.19;;;14.86;100.00
53514;BME280;39768;54.148;12.174;2023-03-21T15:18:04;101039.84;;;15.06;100.00
53514;BME280;39768;54.148;12.174;2023-03-21T15:22:15;101047.09;;;14.69;100.00
53514;BME280;39768;54.148;12.174;2023-03-21T15:26:21;101043.06;;;15.19;100.00
53514;BME280;39768;54.148;12.174;2023-03-21T15:30:27;101045.16;;;15.08;100.00
53514;BME280;39768;54.148;12.174;2023-03-21T15:34:29;101039.34;;;14.58;100.00
53514;BME280;39768;54.148;12.174;2023-03-21T15:38:41;101033.47;;;14.79;100.00
53514;BME280;39768;54.148;12.174;2023-03-21T15:42:45;101031.00;;;15.04;100.00
53514;BME280;39768;54.148;12.174;2023-03-21T15:46:49;101030.09;;;15.67;100.00
53514;BME280;39768;54.148;12.174;2023-03-21T15:50:57;101029.25;;;15.02;100.00
53514;BME280;39768;54.148;12.174;2023-03-21T15:55:00;101016.53;;;15.42;100.00
53514;BME280;39768;54.148;12.174;2023-03-21T15:59:03;101018.38;;;14.77;100.00
53514;BME280;39768;54.148;12.174;2023-03-21T16:03:12;101025.22;;;15.20;100.00
53514;BME280;39768;54.148;12.174;2023-03-21T16:07:17;101021.69;;;14.85;100.00
53514;BME280;39768;54.148;12.174;2023-03-21T16:15:24;101014.00;;;15.07;100.00
53514;BME280;39768;54.148;12.174;2023-03-21T16:19:26;101010.59;;;15.00;100.00
53514;BME280;39768;54.148;12.174;2023-03-21T16:23:30;101014.34;;;14.95;100.00
53514;BME280;39768;54.148;12.174;2023-03-21T16:27:31;101009.72;;;14.67;100.00
53514;BME280;39768;54.148;12.174;2023-03-21T16:31:34;101010.44;;;14.38;100.00
53514;BME280;39768;54.148;12.174;2023-03-21T16:35:35;101008.47;;;14.80;100.00
53514;BME280;39768;54.148;12.174;2023-03-21T16:39:37;101008.72;;;14.71;100.00
53514;BME280;39768;54.148;12.174;2023-03-21T16:43:39;101005.47;;;14.93;100.00
53514;BME280;39768;54.148;12.174;2023-03-21T16:47:43;101004.25;;;15.04;100.00
53514;BME280;39768;54.148;12.174;2023-03-21T16:51:45;101001.38;;;14.79;100.00
53514;BME280;39768;54.148;12.174;2023-03-21T16:55:47;101001.13;;;14.55;100.00
53514;BME280;39768;54.148;12.174;2023-03-21T16:59:48;101003.63;;;14.62;100.00
53514;BME280;39768;54.148;12.174;2023-03-21T17:03:51;100997.47;;;14.59;100.00
53514;BME280;39768;54.148;12.174;2023-03-21T17:07:53;101004.25;;;14.72;100.00
53514;BME280;39768;54.148;12.174;2023-03-21T17:11:55;101002.91;;;14.88;100.00
53514;BME280;39768;54.148;12.174;2023-03-21T17:15:56;101000.81;;;14.68;100.00
53514;BME280;39768;54.148;12.174;2023-03-21T17:19:58;101001.19;;;14.53;100.00
53514;BME280;39768;54.148;12.174;2023-03-21T17:23:59;100995.72;;;14.58;100.00
53514;BME280;39768;54.148;12.174;2023-03-21T17:28:01;100990.66;;;14.10;100.00
53514;BME280;39768;54.148;12.174;2023-03-21T17:32:03;101003.13;;;14.46;100.00
53514;BME280;39768;54.148;12.174;2023-03-21T17:40:12;100988.09;;;14.42;100.00
53514;BME280;39768;54.148;12.174;2023-03-21T17:44:14;100998.22;;;14.28;100.00
53514;BME280;39768;54.148;12.174;2023-03-21T17:48:16;101007.16;;;14.97;100.00
53514;BME280;39768;54.148;12.174;2023-03-21T17:52:17;101009.22;;;14.86;100.00
53514;BME280;39768;54.148;12.174;2023-03-21T17:56:21;101002.75;;;14.62;100.00
53514;BME280;39768;54.148;12.174;2023-03-21T18:00:29;101009.91;;;14.60;100.00
53514;BME280;39768;54.148;12.174;2023-03-21T18:04:30;101009.94;;;14.92;100.00
53514;BME280;39768;54.148;12.174;2023-03-21T18:08:32;101008.59;;;14.42;100.00
53514;BME280;39768;54.148;12.174;2023-03-21T18:12:33;101013.75;;;14.50;100.00
53514;BME280;39768;54.148;12.174;2023-03-21T18:16:35;101015.78;;;14.38;100.00
53514;BME280;39768;54.148;12.174;2023-03-21T18:20:36;101009.66;;;13.96;100.00
53514;BME280;39768;54.148;12.174;2023-03-21T18:24:56;101013.31;;;13.94;100.00
53514;BME280;39768;54.148;12.174;2023-03-21T18:28:57;101004.19;;;14.02;100.00
53514;BME280;39768;54.148;12.174;2023-03-21T18:33:19;101005.66;;;13.79;100.00
53514;BME280;39768;54.148;12.174;2023-03-21T18:37:21;101003.28;;;14.03;100.00
53514;BME280;39768;54.148;12.174;2023-03-21T18:41:22;101000.00;;;13.52;100.00
53514;BME280;39768;54.148;12.174;2023-03-21T18:45:24;100996.03;;;13.71;100.00
53514;BME280;39768;54.148;12.174;2023-03-21T18:49:26;100995.53;;;13.93;100.00
53514;BME280;39768;54.148;12.174;2023-03-21T18:53:48;100991.03;;;13.56;100.00
53514;BME280;39768;54.148;12.174;2023-03-21T18:57:49;100983.84;;;13.97;100.00
53514;BME280;39768;54.148;12.174;2023-03-21T19:01:54;100989.59;;;14.17;100.00
53514;BME280;39768;54.148;12.174;2023-03-21T19:05:59;100984.88;;;13.93;100.00
53514;BME280;39768;54.148;12.174;2023-03-21T19:10:00;100971.91;;;13.76;100.00
53514;BME280;39768;54.148;12.174;2023-03-21T19:14:18;100977.63;;;13.96;100.00
53514;BME280;39768;54.148;12.174;2023-03-21T19:18:20;100985.00;;;14.24;100.00
53514;BME280;39768;54.148;12.174;2023-03-21T19:22:42;100975.63;;;14.07;100.00
53514;BME280;39768;54.148;12.174;2023-03-21T19:26:44;100965.44;;;13.86;100.00
53514;BME280;39768;54.148;12.174;2023-03-21T19:30:46;100974.84;;;14.02;100.00
53514;BME280;39768;54.148;12.174;2023-03-21T19:34:50;100965.72;;;13.74;100.00
53514;BME280;39768;54.148;12.174;2023-03-21T19:38:52;100977.16;;;14.16;100.00
53514;BME280;39768;54.148;12.174;2023-03-21T19:42:53;100979.19;;;14.06;100.00
53514;BME280;39768;54.148;12.174;2023-03-21T19:46:55;100983.66;;;13.67;100.00
53514;BME280;39768;54.148;12.174;2023-03-21T19:50:56;100977.78;;;13.92;100.00
53514;BME280;39768;54.148;12.174;2023-03-21T19:55:22;100974.78;;;13.65;100.00
53514;BME280;39768;54.148;12.174;2023-03-21T19:59:24;100965.72;;;13.74;100.00
53514;BME280;39768;54.148;12.174;2023-03-21T20:03:25;100976.84;;;13.93;100.00
53514;BME280;39768;54.148;12.174;2023-03-21T20:07:27;100973.91;;;14.03;100.00
53514;BME280;39768;54.148;12.174;2023-03-21T20:11:32;100980.47;;;13.90;100.00
53514;BME280;39768;54.148;12.174;2023-03-21T20:15:33;100976.25;;;14.17;100.00
53514;BME280;39768;54.148;12.174;2023-03-21T20:19:47;100973.66;;;14.14;100.00
53514;BME280;39768;54.148;12.174;2023-03-21T20:23:49;100980.25;;;13.99;100.00
53514;BME280;39768;54.148;12.174;2023-03-21T20:27:51;100976.78;;;13.57;100.00
53514;BME280;39768;54.148;12.174;2023-03-21T20:32:12;100982.03;;;13.62;100.00
53514;BME280;39768;54.148;12.174;2023-03-21T20:36:14;100978.66;;;13.52;100.00
53514;BME280;39768;54.148;12.174;2023-03-21T20:40:36;100968.53;;;13.68;100.00
53514;BME280;39768;54.148;12.174;2023-03-21T20:44:38;100972.81;;;13.75;100.00
53514;BME280;39768;54.148;12.174;2023-03-21T20:48:59;100971.28;;;13.23;100.00
53514;BME280;39768;54.148;12.174;2023-03-21T20:53:00;100967.94;;;13.12;100.00
53514;BME280;39768;54.148;12.174;2023-03-21T20:57:07;100972.41;;;13.93;100.00
53514;BME280;39768;54.148;12.174;2023-03-21T21:01:09;100969.03;;;13.84;100.00
53514;BME280;39768;54.148;12.174;2023-03-21T21:05:16;100964.34;;;14.30;100.00
53514;BME280;39768;54.148;12.174;2023-03-21T21:09:32;100956.19;;;14.01;100.00
53514;BME280;39768;54.148;12.174;2023-03-21T21:13:33;100953.06;;;13.82;100.00
53514;BME280;39768;54.148;12.174;2023-03-21T21:17:35;100947.34;;;13.62;100.00
53514;BME280;39768;54.148;12.174;2023-03-21T21:21:56;100941.53;;;13.43;100.00
53514;BME280;39768;54.148;12.174;2023-03-21T21:25:58;100935.75;;;13.23;100.00
53514;BME280;39768;54.148;12.174;2023-03-21T21:30:01;100931.13;;;12.88;100.00
53514;BME280;39768;54.148;12.174;2023-03-21T21:34:03;100937.22;;;12.94;100.00
53514;BME280;39768;54.148;12.174;2023-03-21T21:38:06;100935.31;;;13.01;100.00
53514;BME280;39768;54.148;12.174;2023-03-21T21:42:08;100920.13;;;13.04;100.00
53514;BME280;39768;54.148;12.174;2023-03-21T21:46:09;100926.56;;;12.93;100.00
53514;BME280;39768;54.148;12.174;2023-03-21T21:50:12;100919.47;;;12.93;100.00
53514;BME280;39768;54.148;12.174;2023-03-21T21:54:14;100914.53;;;12.75;100.00
53514;BME280;39768;54.148;12.174;2023-03-21T21:58:18;100908.81;;;12.49;100.00
53514;BME280;39768;54.148;12.174;2023-03-21T22:02:21;100906.28;;;12.87;100.00
53514;BME280;39768;54.148;12.174;2023-03-21T22:06:26;100911.16;;;12.65;100.00
53514;BME280;39768;54.148;12.174;2023-03-21T22:10:30;100908.22;;;12.33;100.00
53514;BME280;39768;54.148;12.174;2023-03-21T22:14:32;100907.75;;;12.59;100.00
53514;BME280;39768;54.148;12.174;2023-03-21T22:18:34;100896.19;;;12.60;100.00
53514;BME280;39768;54.148;12.174;2023-03-21T22:22:38;100901.72;;;12.48;100.00
53514;BME280;39768;54.148;12.174;2023-03-21T22:26:40;100902.31;;;12.62;100.00
53514;BME280;39768;54.148;12.174;2023-03-21T22:30:42;100898.94;;;12.55;100.00
53514;BME280;39768;54.148;12.174;2023-03-21T22:34:43;100895.13;;;12.67;100.00